Terminal Aerodrome Forecast
Issued by NWS Duluth, MN

Home | Current Version | Previous Version | Text Only | Print | Product List | Glossary On
Versions: 1 2 3 4 5 6 7 8 9 10 11 12 13 14 15 16 17 18 19 20 21
000
FTUS43 KDLH 210529
TAFINL
TAF
KINL 210529Z 2106/2206 30017G29KT 6SM -SHSN SCT015 OVC020
      TEMPO 2106/2110 3SM -SHSN BKN015 OVC020
     FM211200 32016G25KT P6SM BKN020
     FM212300 29011G16KT P6SM BKN030
     FM220300 28008KT P6SM SCT030
      AMD NOT SKED=

USA.gov is the U.S. government's official web portal to all federal, state and local government web resources and services.